createdAt,value
2022-09-09T00:01:37.874Z,39.69
2022-09-09T00:04:04.185Z,39.39
2022-09-09T00:06:30.508Z,39.68
2022-09-09T00:08:56.838Z,39.72
2022-09-09T00:11:23.149Z,39.20
2022-09-09T00:13:49.470Z,39.33
2022-09-09T00:16:15.819Z,39.50
2022-09-09T00:18:42.168Z,39.38
2022-09-09T00:21:08.498Z,39.03
2022-09-09T00:23:34.852Z,39.30
2022-09-09T00:26:01.176Z,39.20
2022-09-09T00:28:27.484Z,38.86
2022-09-09T00:30:53.877Z,39.43
2022-09-09T00:33:20.283Z,38.74
2022-09-09T00:35:46.606Z,38.88
2022-09-09T00:38:12.915Z,38.74
2022-09-09T00:40:39.229Z,38.88
2022-09-09T00:43:05.549Z,39.15
2022-09-09T00:45:31.903Z,39.40
2022-09-09T00:47:58.218Z,39.42
2022-09-09T00:50:24.533Z,38.74
2022-09-09T00:52:50.847Z,39.20
2022-09-09T00:55:17.160Z,39.11
2022-09-09T00:57:43.490Z,39.20
2022-09-09T01:00:09.806Z,39.16
2022-09-09T01:02:36.130Z,39.08
2022-09-09T01:05:02.478Z,39.13
2022-09-09T01:07:28.794Z,39.17
2022-09-09T01:09:55.109Z,39.47
2022-09-09T01:12:21.439Z,39.63
2022-09-09T01:14:47.745Z,39.63
2022-09-09T01:17:14.060Z,39.86
2022-09-09T01:19:40.387Z,39.66
2022-09-09T01:22:06.716Z,39.61
2022-09-09T01:24:33.064Z,39.85
2022-09-09T01:26:59.393Z,40.06
2022-09-09T01:29:25.726Z,40.12
2022-09-09T01:31:52.054Z,40.22
2022-09-09T01:34:18.384Z,40.23
2022-09-09T01:36:44.709Z,40.36
2022-09-09T01:39:11.042Z,40.19
2022-09-09T01:41:37.371Z,40.10
2022-09-09T01:44:03.701Z,40.15
2022-09-09T01:46:30.108Z,40.14
2022-09-09T01:48:56.466Z,40.21
2022-09-09T01:51:22.781Z,40.30
2022-09-09T01:53:49.113Z,40.51
2022-09-09T01:56:15.498Z,40.51
2022-09-09T01:58:41.814Z,40.68
2022-09-09T02:01:08.164Z,40.71
2022-09-09T02:03:34.515Z,40.33
2022-09-09T02:06:00.846Z,40.51
2022-09-09T02:08:27.177Z,40.61
2022-09-09T02:10:53.519Z,40.72
2022-09-09T02:13:19.841Z,40.99
2022-09-09T02:15:46.164Z,40.97
2022-09-09T02:18:12.496Z,40.67
2022-09-09T02:20:38.828Z,40.97
2022-09-09T02:23:05.215Z,40.61
2022-09-09T02:25:31.587Z,40.79
2022-09-09T02:27:57.909Z,41.13
2022-09-09T02:30:24.258Z,41.15
2022-09-09T02:32:50.624Z,41.26
2022-09-09T02:35:16.945Z,41.21
2022-09-09T02:37:43.343Z,40.70
2022-09-09T02:40:09.692Z,41.38
2022-09-09T02:42:36.034Z,41.32
2022-09-09T02:45:02.338Z,41.56
2022-09-09T02:47:28.662Z,41.22
2022-09-09T02:49:54.965Z,41.43
2022-09-09T02:52:21.299Z,41.34
2022-09-09T02:54:47.637Z,41.37
2022-09-09T02:57:13.955Z,41.23
2022-09-09T02:59:40.301Z,41.07
2022-09-09T03:02:06.676Z,41.49
2022-09-09T03:04:33.018Z,41.21
2022-09-09T03:06:59.349Z,41.39
2022-09-09T03:09:25.671Z,41.23
2022-09-09T03:11:52.037Z,41.37
2022-09-09T03:14:18.417Z,41.27
2022-09-09T03:16:44.784Z,41.54
2022-09-09T03:19:11.152Z,41.70
2022-09-09T03:21:37.466Z,41.47
2022-09-09T03:24:03.781Z,41.28
2022-09-09T03:26:30.106Z,41.69
2022-09-09T03:28:56.443Z,41.56
2022-09-09T03:31:22.802Z,41.73
2022-09-09T03:33:49.171Z,41.32
2022-09-09T03:36:15.514Z,41.03
2022-09-09T03:38:41.835Z,41.10
2022-09-09T03:41:08.182Z,41.49
2022-09-09T03:43:34.497Z,41.22
2022-09-09T03:46:00.881Z,41.58
2022-09-09T03:48:27.272Z,41.24
2022-09-09T03:50:53.585Z,41.18
2022-09-09T03:53:19.911Z,41.50
2022-09-09T03:55:46.218Z,41.15
2022-09-09T03:58:12.534Z,41.34
2022-09-09T04:00:38.890Z,41.46
2022-09-09T04:03:05.274Z,41.44
2022-09-09T04:05:31.585Z,41.38
2022-09-09T04:07:57.904Z,41.51
2022-09-09T04:10:24.223Z,41.63
2022-09-09T04:12:50.548Z,41.27
2022-09-09T04:15:16.884Z,41.20
2022-09-09T04:17:43.215Z,41.03
2022-09-09T04:20:09.538Z,41.56
2022-09-09T04:22:35.860Z,41.26
2022-09-09T04:25:02.174Z,41.27
2022-09-09T04:27:28.482Z,41.14
2022-09-09T04:29:54.803Z,41.70
2022-09-09T04:32:21.127Z,41.77
2022-09-09T04:34:47.442Z,41.60
2022-09-09T04:37:13.763Z,41.37
2022-09-09T04:39:40.135Z,40.98
2022-09-09T04:42:06.488Z,41.07
2022-09-09T04:44:32.809Z,41.69
2022-09-09T04:46:59.134Z,40.97
2022-09-09T04:49:25.470Z,41.56
2022-09-09T04:51:51.786Z,41.35
2022-09-09T04:54:18.091Z,41.43
2022-09-09T04:56:44.415Z,41.51
2022-09-09T04:59:10.757Z,41.81
2022-09-09T05:01:37.068Z,41.28
2022-09-09T05:04:03.388Z,41.53
2022-09-09T05:06:29.711Z,41.82
2022-09-09T05:08:56.078Z,41.69
2022-09-09T05:11:23.465Z,41.24
2022-09-09T05:13:49.773Z,41.43
2022-09-09T05:16:16.123Z,41.60
2022-09-09T05:18:42.508Z,41.98
2022-09-09T05:21:08.842Z,41.58
2022-09-09T05:23:35.198Z,41.31
2022-09-09T05:26:01.522Z,41.28
2022-09-09T05:28:27.832Z,41.27
2022-09-09T05:30:54.139Z,41.56
2022-09-09T05:33:20.474Z,41.06
2022-09-09T05:35:46.800Z,41.05
2022-09-09T05:38:13.111Z,41.15
2022-09-09T05:40:39.438Z,41.32
2022-09-09T05:43:05.764Z,41.01
2022-09-09T05:45:32.102Z,41.53
2022-09-09T05:47:58.420Z,41.55
2022-09-09T05:50:27.619Z,41.71
2022-09-09T05:52:56.110Z,41.66
2022-09-09T05:55:22.480Z,41.35
2022-09-09T05:57:48.795Z,41.46
2022-09-09T06:00:15.147Z,41.55
2022-09-09T06:02:41.559Z,41.26
2022-09-09T06:05:08.000Z,42.06
2022-09-09T06:07:34.313Z,41.29
2022-09-09T06:10:00.658Z,41.53
2022-09-09T06:12:26.984Z,41.46
2022-09-09T06:14:53.316Z,41.81
2022-09-09T06:17:19.650Z,41.99
2022-09-09T06:19:46.038Z,41.89
2022-09-09T06:22:12.545Z,41.57
2022-09-09T06:24:38.841Z,41.55
2022-09-09T06:27:05.183Z,42.09
2022-09-09T06:29:31.525Z,42.16
2022-09-09T06:31:57.883Z,42.30
2022-09-09T06:34:24.287Z,42.12
2022-09-09T06:36:50.605Z,42.34
2022-09-09T06:39:16.921Z,42.41
2022-09-09T06:41:43.266Z,42.71
2022-09-09T06:44:09.591Z,42.18
2022-09-09T06:46:35.939Z,42.72
2022-09-09T06:49:02.274Z,42.59
2022-09-09T06:51:28.591Z,42.58
2022-09-09T06:53:54.923Z,42.50
2022-09-09T06:56:21.295Z,42.55
2022-09-09T06:58:47.610Z,42.59
2022-09-09T07:01:14.014Z,42.48
2022-09-09T07:03:40.390Z,42.86
2022-09-09T07:06:06.700Z,42.62
2022-09-09T07:08:33.042Z,42.35
2022-09-09T07:10:59.405Z,42.78
2022-09-09T07:13:25.730Z,42.47
2022-09-09T07:15:52.117Z,42.59
2022-09-09T07:18:18.443Z,42.45
2022-09-09T07:20:44.750Z,42.12
2022-09-09T07:23:11.070Z,42.36
2022-09-09T07:25:37.408Z,42.43
2022-09-09T07:28:03.748Z,42.50
2022-09-09T07:30:30.068Z,42.39
2022-09-09T07:32:56.412Z,42.39
2022-09-09T07:35:22.743Z,42.70
2022-09-09T07:37:51.020Z,42.44
2022-09-09T07:40:17.632Z,42.14
2022-09-09T07:42:44.004Z,42.43
2022-09-09T07:45:10.305Z,42.56
2022-09-09T07:47:36.648Z,42.29
2022-09-09T07:50:02.953Z,42.32
2022-09-09T07:52:29.302Z,42.43
2022-09-09T07:54:55.712Z,42.35
2022-09-09T07:57:22.014Z,41.83
2022-09-09T07:59:48.382Z,42.21
2022-09-09T08:02:14.699Z,42.01
2022-09-09T08:04:41.451Z,41.83
2022-09-09T08:07:07.793Z,41.98
2022-09-09T08:09:34.211Z,41.95
2022-09-09T08:12:00.525Z,41.69
2022-09-09T08:14:26.879Z,41.42
2022-09-09T08:16:55.085Z,41.49
2022-09-09T08:19:21.609Z,41.71
2022-09-09T08:21:47.930Z,41.76
2022-09-09T08:24:14.244Z,41.58
2022-09-09T08:26:40.559Z,41.47
2022-09-09T08:29:06.865Z,41.96
2022-09-09T08:31:33.181Z,41.64
2022-09-09T08:33:59.511Z,41.88
2022-09-09T08:36:25.854Z,41.31
2022-09-09T08:38:52.165Z,41.56
2022-09-09T08:41:18.474Z,41.46
2022-09-09T08:43:44.786Z,41.65
2022-09-09T08:46:11.156Z,41.74
2022-09-09T08:48:37.544Z,41.26
2022-09-09T08:51:03.975Z,41.42
2022-09-09T08:53:30.291Z,41.14
2022-09-09T08:55:56.603Z,40.91
2022-09-09T08:58:22.921Z,41.09
2022-09-09T09:00:49.225Z,41.00
2022-09-09T09:03:15.554Z,41.32
2022-09-09T09:05:41.888Z,41.35
2022-09-09T09:08:08.229Z,41.37
2022-09-09T09:10:42.992Z,41.04
2022-09-09T09:13:09.465Z,40.97
2022-09-09T09:15:35.844Z,41.40
2022-09-09T09:18:02.179Z,41.20
2022-09-09T09:20:28.487Z,41.26
2022-09-09T09:22:54.803Z,40.94
2022-09-09T09:25:21.107Z,41.15
2022-09-09T09:27:47.473Z,40.67
2022-09-09T09:30:25.306Z,40.93
2022-09-09T09:32:55.219Z,41.06
2022-09-09T09:35:21.530Z,41.27
2022-09-09T09:40:34.150Z,40.90
2022-09-09T09:43:00.469Z,40.92
2022-09-09T09:45:26.782Z,40.84
2022-09-09T09:47:56.610Z,41.04
2022-09-09T09:50:25.997Z,40.63
2022-09-09T09:52:52.312Z,40.61
2022-09-09T09:55:18.623Z,40.94
2022-09-09T09:57:44.952Z,40.63
2022-09-09T10:00:11.293Z,40.34
2022-09-09T10:02:37.636Z,40.20
2022-09-09T10:05:04.052Z,40.20
2022-09-09T10:07:30.414Z,39.98
2022-09-09T10:09:56.718Z,39.66
2022-09-09T10:12:23.102Z,39.54
2022-09-09T10:14:49.440Z,40.13
2022-09-09T10:17:15.793Z,39.79
2022-09-09T10:19:42.123Z,39.57
2022-09-09T10:22:08.446Z,39.58
2022-09-09T10:24:34.819Z,39.67
2022-09-09T10:27:01.215Z,39.72
2022-09-09T10:29:27.541Z,39.94
2022-09-09T10:31:53.848Z,39.97
2022-09-09T10:34:20.160Z,39.57
2022-09-09T10:36:46.479Z,39.11
2022-09-09T10:39:12.808Z,39.23
2022-09-09T10:41:39.131Z,39.17
2022-09-09T10:44:05.455Z,39.74
2022-09-09T10:46:31.860Z,39.38
2022-09-09T10:48:58.242Z,39.46
2022-09-09T10:51:24.554Z,39.07
2022-09-09T10:53:50.862Z,39.16
2022-09-09T10:56:17.201Z,39.38
2022-09-09T10:58:43.547Z,39.45
2022-09-09T11:01:09.923Z,39.46
2022-09-09T11:03:36.364Z,39.79
2022-09-09T11:06:02.945Z,39.38
2022-09-09T11:08:29.330Z,39.68
2022-09-09T11:10:55.684Z,39.38
2022-09-09T11:13:22.015Z,39.45
2022-09-09T11:15:48.343Z,39.14
2022-09-09T11:18:14.675Z,38.96
2022-09-09T11:20:40.987Z,39.03
2022-09-09T11:23:07.310Z,39.09
2022-09-09T11:25:33.657Z,39.29
2022-09-09T11:28:00.070Z,39.04
2022-09-09T11:30:54.791Z,38.94
2022-09-09T11:33:12.812Z,38.85
2022-09-09T11:35:39.351Z,38.71
2022-09-09T11:38:05.731Z,38.76
2022-09-09T11:40:32.048Z,38.98
2022-09-09T11:42:58.359Z,38.61
2022-09-09T11:45:24.683Z,38.17
2022-09-09T11:47:50.997Z,37.78
2022-09-09T11:50:17.330Z,37.89
2022-09-09T11:52:43.655Z,37.76
2022-09-09T11:55:09.963Z,37.99
2022-09-09T11:57:36.278Z,38.06
2022-09-09T12:00:02.609Z,37.73
2022-09-09T12:02:29.058Z,37.73
2022-09-09T12:04:55.465Z,38.19
2022-09-09T12:07:21.837Z,38.18
2022-09-09T12:09:48.211Z,37.56
2022-09-09T12:12:14.538Z,37.72
2022-09-09T12:14:40.878Z,37.75
2022-09-09T12:17:07.230Z,37.31
2022-09-09T12:19:33.643Z,37.43
2022-09-09T12:21:59.951Z,37.44
2022-09-09T12:24:26.287Z,37.00
2022-09-09T12:26:52.612Z,36.85
2022-09-09T12:29:18.926Z,36.81
2022-09-09T12:31:45.939Z,37.35
2022-09-09T12:34:12.329Z,36.97
2022-09-09T12:36:38.644Z,36.71
2022-09-09T12:39:04.968Z,36.73
2022-09-09T12:41:31.286Z,36.55
2022-09-09T12:43:57.595Z,36.87
2022-09-09T12:46:23.984Z,36.74
2022-09-09T12:48:50.324Z,36.37
2022-09-09T12:51:16.638Z,36.36
2022-09-09T12:53:42.972Z,36.73
2022-09-09T12:56:09.277Z,36.79
2022-09-09T12:58:35.647Z,36.64
2022-09-09T13:01:02.134Z,36.68
2022-09-09T13:03:28.511Z,37.12
2022-09-09T13:05:54.837Z,36.45
2022-09-09T13:08:21.171Z,36.30
2022-09-09T13:10:53.200Z,36.37
2022-09-09T13:13:21.011Z,36.74
2022-09-09T13:15:47.325Z,36.61
2022-09-09T13:18:13.625Z,36.81
2022-09-09T13:20:39.973Z,36.63
2022-09-09T13:23:06.281Z,36.75
2022-09-09T13:25:32.593Z,36.54
2022-09-09T13:27:58.893Z,36.97
2022-09-09T13:30:25.291Z,36.48
2022-09-09T13:32:51.654Z,36.50
2022-09-09T13:35:17.977Z,36.63
2022-09-09T13:37:44.289Z,36.01
2022-09-09T13:40:10.633Z,35.91
2022-09-09T13:42:36.943Z,36.23
2022-09-09T13:45:03.270Z,35.87
2022-09-09T13:47:29.569Z,36.04
2022-09-09T13:49:55.933Z,36.14
2022-09-09T13:52:22.248Z,36.24
2022-09-09T13:54:48.574Z,35.96
2022-09-09T13:57:14.905Z,35.82
2022-09-09T14:00:03.579Z,35.93
2022-09-09T14:02:27.617Z,35.56
2022-09-09T14:04:53.979Z,35.80
2022-09-09T14:07:20.297Z,35.66
2022-09-09T14:09:46.610Z,35.97
2022-09-09T14:12:12.932Z,36.07
2022-09-09T14:14:39.229Z,35.78
2022-09-09T14:17:07.999Z,35.99
2022-09-09T14:19:34.529Z,35.80
2022-09-09T14:22:00.839Z,35.79
2022-09-09T14:24:27.154Z,35.94
2022-09-09T14:26:53.491Z,35.83
2022-09-09T14:29:19.816Z,35.88
2022-09-09T14:31:46.126Z,36.30
2022-09-09T14:34:12.442Z,36.42
2022-09-09T14:36:38.776Z,36.29
2022-09-09T14:39:05.157Z,36.00
2022-09-09T14:41:31.544Z,35.77
2022-09-09T14:43:57.869Z,35.97
2022-09-09T14:46:24.254Z,36.04
2022-09-09T14:48:50.780Z,35.92
2022-09-09T14:51:17.319Z,35.88
2022-09-09T14:53:43.674Z,35.90
2022-09-09T14:56:10.026Z,36.78
2022-09-09T14:58:36.324Z,36.30
2022-09-09T15:01:02.696Z,36.49
2022-09-09T15:03:29.021Z,36.57
2022-09-09T15:05:55.367Z,36.16
2022-09-09T15:08:21.682Z,36.64
2022-09-09T15:10:48.010Z,36.66
2022-09-09T15:13:14.328Z,37.04
2022-09-09T15:15:40.686Z,37.29
2022-09-09T15:18:07.015Z,37.02
2022-09-09T15:20:36.000Z,36.95
2022-09-09T15:23:05.956Z,37.42
2022-09-09T15:25:32.267Z,37.43
2022-09-09T15:27:58.580Z,37.10
2022-09-09T15:30:24.923Z,36.90
2022-09-09T15:32:51.304Z,37.33
2022-09-09T15:35:17.624Z,37.56
2022-09-09T15:37:43.955Z,37.52
2022-09-09T15:40:10.325Z,37.29
2022-09-09T15:42:36.709Z,37.17
2022-09-09T15:45:03.055Z,36.56
2022-09-09T15:47:29.383Z,36.48
2022-09-09T15:49:55.757Z,36.85
2022-09-09T15:52:22.086Z,37.12
2022-09-09T15:54:48.397Z,36.76
2022-09-09T15:57:14.727Z,36.88
2022-09-09T15:59:41.044Z,37.15
2022-09-09T16:02:07.484Z,37.46
2022-09-09T16:04:33.980Z,37.42
2022-09-09T16:07:00.286Z,37.42
2022-09-09T16:09:26.584Z,37.05
2022-09-09T16:11:52.899Z,37.32
2022-09-09T16:14:19.219Z,37.36
2022-09-09T16:16:45.529Z,37.46
2022-09-09T16:19:12.037Z,37.93
2022-09-09T16:21:38.343Z,37.71
2022-09-09T16:24:04.669Z,38.08
2022-09-09T16:26:31.819Z,38.16
2022-09-09T16:28:58.218Z,37.95
2022-09-09T16:31:24.707Z,37.54
2022-09-09T16:33:51.164Z,38.02
2022-09-09T16:36:17.466Z,37.92
2022-09-09T16:38:43.792Z,37.59
2022-09-09T16:41:10.128Z,37.85
2022-09-09T16:43:36.494Z,37.61
2022-09-09T16:46:02.921Z,38.10
2022-09-09T16:48:29.269Z,38.02
2022-09-09T16:50:55.595Z,37.53
2022-09-09T16:53:21.897Z,37.64
2022-09-09T16:55:48.228Z,38.00
2022-09-09T16:58:14.522Z,37.42
2022-09-09T17:00:40.841Z,37.95
2022-09-09T17:03:07.187Z,37.57
2022-09-09T17:05:33.552Z,37.90
2022-09-09T17:07:59.862Z,37.29
2022-09-09T17:10:26.194Z,37.90
2022-09-09T17:12:52.531Z,34.33
2022-09-09T17:15:18.840Z,32.62
2022-09-09T17:17:45.169Z,32.17
2022-09-09T17:20:11.491Z,31.64
2022-09-09T17:22:37.811Z,31.76
2022-09-09T17:25:04.292Z,32.61
2022-09-09T17:27:30.688Z,31.51
2022-09-09T17:29:57.045Z,31.48
2022-09-09T17:32:23.482Z,31.69
2022-09-09T17:34:49.800Z,31.28
2022-09-09T17:37:16.182Z,30.63
2022-09-09T17:39:42.574Z,30.70
2022-09-09T17:42:08.918Z,31.70
2022-09-09T17:44:35.239Z,31.72
2022-09-09T17:47:01.596Z,32.92
2022-09-09T17:49:27.923Z,33.12
2022-09-09T17:51:54.238Z,33.28
2022-09-09T17:54:20.649Z,33.37
2022-09-09T17:56:47.015Z,34.37
2022-09-09T17:59:13.359Z,34.32
2022-09-09T18:01:39.766Z,34.34
2022-09-09T18:04:06.103Z,34.54
2022-09-09T18:06:32.444Z,34.38
2022-09-09T18:08:58.871Z,35.28
2022-09-09T18:11:25.201Z,34.84
2022-09-09T18:13:51.534Z,35.08
2022-09-09T18:16:18.023Z,35.12
2022-09-09T18:18:44.394Z,35.25
2022-09-09T18:21:10.780Z,35.33
2022-09-09T18:23:37.135Z,35.15
2022-09-09T18:26:03.459Z,35.06
2022-09-09T18:28:29.798Z,34.93
2022-09-09T18:30:56.218Z,35.02
2022-09-09T18:33:22.677Z,35.18
2022-09-09T18:35:49.073Z,35.10
2022-09-09T18:38:15.434Z,35.62
2022-09-09T18:40:41.778Z,35.38
2022-09-09T18:43:08.121Z,35.65
2022-09-09T18:45:34.472Z,36.07
2022-09-09T18:48:00.798Z,36.11
2022-09-09T18:50:27.106Z,36.08
2022-09-09T18:52:53.440Z,35.31
2022-09-09T18:55:19.824Z,35.91
2022-09-09T18:57:46.165Z,36.00
2022-09-09T19:00:12.474Z,36.49
2022-09-09T19:02:38.863Z,36.39
2022-09-09T19:05:05.253Z,36.17
2022-09-09T19:07:31.566Z,36.51
2022-09-09T19:09:57.875Z,36.47
2022-09-09T19:12:24.385Z,36.15
2022-09-09T19:14:50.979Z,36.30
2022-09-09T19:17:17.309Z,37.62
2022-09-09T19:19:43.654Z,38.56
2022-09-09T19:22:10.049Z,37.64
2022-09-09T19:24:36.409Z,36.87
2022-09-09T19:27:02.789Z,37.21
2022-09-09T19:29:29.237Z,36.79
2022-09-09T19:32:29.696Z,36.99
2022-09-09T19:34:41.851Z,36.87
2022-09-09T19:37:08.264Z,36.72
2022-09-09T19:39:34.792Z,36.54
2022-09-09T19:42:01.241Z,36.89
2022-09-09T19:44:27.683Z,37.02
2022-09-09T19:46:54.088Z,37.04
2022-09-09T19:49:20.557Z,36.99
2022-09-09T19:51:46.978Z,37.29
2022-09-09T19:54:13.482Z,37.13
2022-09-09T19:56:39.844Z,37.34
2022-09-09T19:59:06.175Z,37.13
2022-09-09T20:01:35.484Z,37.22
2022-09-09T20:04:05.843Z,37.99
2022-09-09T20:06:32.173Z,37.96
2022-09-09T20:08:58.564Z,38.02
2022-09-09T20:11:24.902Z,37.48
2022-09-09T20:13:51.318Z,37.53
2022-09-09T20:16:17.831Z,37.59
2022-09-09T20:18:44.196Z,37.76
2022-09-09T20:21:10.512Z,37.49
2022-09-09T20:23:36.843Z,37.71
2022-09-09T20:26:03.197Z,38.02
2022-09-09T20:28:29.512Z,37.83
2022-09-09T20:30:55.866Z,38.12
2022-09-09T20:33:22.204Z,37.80
2022-09-09T20:35:48.518Z,38.05
2022-09-09T20:38:14.946Z,38.51
2022-09-09T20:40:41.262Z,38.67
2022-09-09T20:43:07.579Z,38.23
2022-09-09T20:45:33.958Z,38.78
2022-09-09T20:48:00.266Z,38.52
2022-09-09T20:50:26.582Z,38.64
2022-09-09T20:52:52.887Z,38.18
2022-09-09T20:55:19.201Z,38.68
2022-09-09T20:57:45.562Z,38.14
2022-09-09T21:00:11.864Z,38.62
2022-09-09T21:02:38.253Z,38.71
2022-09-09T21:05:04.605Z,38.78
2022-09-09T21:07:30.926Z,38.36
2022-09-09T21:09:57.226Z,38.03
2022-09-09T21:12:23.544Z,38.24
2022-09-09T21:14:49.850Z,38.46
2022-09-09T21:17:16.157Z,38.74
2022-09-09T21:19:42.472Z,38.44
2022-09-09T21:22:08.793Z,38.31
2022-09-09T21:24:35.107Z,38.30
2022-09-09T21:27:01.443Z,38.44
2022-09-09T21:29:27.750Z,38.94
2022-09-09T21:31:54.058Z,38.99
2022-09-09T21:34:20.372Z,39.12
2022-09-09T21:36:46.682Z,39.07
2022-09-09T21:39:13.003Z,38.65
2022-09-09T21:41:39.323Z,39.27
2022-09-09T21:44:05.678Z,39.38
2022-09-09T21:46:32.028Z,38.85
2022-09-09T21:48:58.371Z,38.80
2022-09-09T21:51:24.718Z,38.99
2022-09-09T21:53:51.041Z,39.07
2022-09-09T21:56:17.360Z,38.95
2022-09-09T21:58:43.663Z,38.56
2022-09-09T22:01:10.000Z,39.20
2022-09-09T22:03:36.315Z,38.97
2022-09-09T22:06:02.640Z,39.29
2022-09-09T22:08:28.964Z,39.14
2022-09-09T22:10:55.278Z,39.11
2022-09-09T22:13:21.577Z,38.80
2022-09-09T22:15:47.941Z,39.08
2022-09-09T22:18:14.296Z,39.07
2022-09-09T22:20:40.651Z,39.66
2022-09-09T22:23:07.080Z,39.39
2022-09-09T22:25:33.422Z,39.45
2022-09-09T22:27:59.727Z,39.30
2022-09-09T22:30:26.046Z,38.95
2022-09-09T22:32:52.369Z,39.20
2022-09-09T22:35:18.678Z,39.30
2022-09-09T22:37:44.982Z,39.02
2022-09-09T22:40:11.343Z,39.16
2022-09-09T22:42:37.692Z,39.40
2022-09-09T22:45:04.004Z,38.97
2022-09-09T22:47:30.309Z,39.23
2022-09-09T22:49:56.626Z,39.31
2022-09-09T22:52:22.955Z,39.51
2022-09-09T22:54:49.266Z,39.57
2022-09-09T22:57:15.596Z,39.49
2022-09-09T22:59:41.923Z,39.52
2022-09-09T23:02:08.241Z,40.08
2022-09-09T23:04:34.542Z,40.25
2022-09-09T23:07:00.860Z,40.12
2022-09-09T23:09:27.214Z,40.13
2022-09-09T23:11:53.533Z,40.13
2022-09-09T23:14:19.842Z,39.93
2022-09-09T23:16:46.154Z,40.00
2022-09-09T23:19:12.478Z,40.22
2022-09-09T23:21:38.786Z,40.44
2022-09-09T23:24:05.086Z,40.29
2022-09-09T23:26:31.400Z,39.99
2022-09-09T23:28:57.723Z,40.21
2022-09-09T23:31:24.069Z,39.93
2022-09-09T23:33:50.422Z,40.10
2022-09-09T23:36:16.763Z,40.42
2022-09-09T23:38:43.076Z,39.90
2022-09-09T23:41:09.379Z,40.11
2022-09-09T23:43:35.698Z,40.31
2022-09-09T23:46:02.057Z,40.16
2022-09-09T23:48:28.415Z,40.49
2022-09-09T23:50:54.745Z,40.40
2022-09-09T23:53:21.074Z,40.16
2022-09-09T23:55:47.393Z,40.15
2022-09-09T23:58:13.718Z,40.25
